Haltom City, Texas
Current Conditions -  °F | °C
As of 7:53 PM on Thursday 18 Dec 2014 (Local Time) from KFTW Reporting Station
Haze Haze  
Wind Chill:   Ceiling: 2200
Heat Index:   Visibility: 6mi
Dew Point:   Wind: 7mph
Humidity: 80%   Direction: 70°ENE
Pressure: 30.15"   Gusts: NA
Location:  32.81°N, 97.27°W
Report Text: KFTW 190153Z 07006KT 6SM HZ OVC022 09/06 A3015 RMK AO2 SLP210 T00940061
Loading
Personal Weather Stations






























Interactive Weather Map New forecast layout! Learn more

10-Day Weather Forecast

Advertisements
Track Severe Weather on mobile